Terminal Aerodrome Forecast
Issued by NWS Mobile, AL

Home | Current Version | Previous Version | Text Only | Print | Product List | Glossary On
Versions: 1 2 3 4 5 6 7 8 9 10 11 12 13 14 15 16 17 18 19 20 21 22 23 24 25 26 27 28 29 30 31 32
000
FTUS44 KMOB 080534
TAFPNS
TAF
KPNS 080534Z 0806/0906 31008KT P6SM FEW023
     FM080900 36010KT P6SM OVC020
      TEMPO 0809/0813 OVC008
     FM081500 36014G22KT P6SM BKN050
     FM090000 36014G22KT P6SM BKN150=

USA.gov is the U.S. government's official web portal to all federal, state and local government web resources and services.